Time;durP1;ratioP1;P1;durP2;ratioP2;P2;SDS_P1;SDS_P2;PMS_P1;PMS_P2;Temp;Humidity;BMP_temperature;BMP_pressure;BME280_temperature;BME280_humidity;BME280_pressure;Samples;Min_cycle;Max_cycle;Signal;HPM_P1;HPM_P2
2023/08/22 00:01:15;;;;;;;12.27;8.15;;;;;;;18.20;100.00;98914.84;4176391;28;20481;-75
2023/08/22 00:03:16;;;;;;;13.25;8.75;;;;;;;18.19;100.00;98924.41;4176003;28;20385;-75
2023/08/22 00:05:16;;;;;;;15.18;8.52;;;;;;;18.16;100.00;98916.06;4176384;28;20041;-74
2023/08/22 00:07:17;;;;;;;14.32;8.70;;;;;;;18.15;100.00;98915.28;4176169;28;20084;-75
2023/08/22 00:09:17;;;;;;;14.05;8.77;;;;;;;18.15;100.00;98911.69;4176417;28;20060;-74
2023/08/22 00:11:18;;;;;;;13.50;8.38;;;;;;;18.11;100.00;98906.13;4174880;28;20153;-74
2023/08/22 00:13:18;;;;;;;11.07;7.75;;;;;;;18.11;100.00;98908.91;4175496;28;20041;-75
2023/08/22 00:15:18;;;;;;;11.57;8.98;;;;;;;18.11;100.00;98908.91;4176499;28;20051;-74
2023/08/22 00:17:19;;;;;;;11.93;8.00;;;;;;;18.09;100.00;98911.34;4175439;28;20114;-74
2023/08/22 00:19:19;;;;;;;11.13;8.18;;;;;;;18.09;100.00;98905.75;4175221;28;20049;-74
2023/08/22 00:21:20;;;;;;;10.93;8.35;;;;;;;18.08;100.00;98901.38;4176600;28;20049;-75
2023/08/22 00:23:20;;;;;;;10.05;8.35;;;;;;;18.09;100.00;98902.16;4175069;28;20140;-74
2023/08/22 00:25:20;;;;;;;11.57;8.10;;;;;;;18.07;100.00;98898.97;4175623;28;20045;-74
2023/08/22 00:27:21;;;;;;;10.35;8.00;;;;;;;18.04;100.00;98892.22;4175858;28;20128;-74
2023/08/22 00:29:21;;;;;;;9.65;7.38;;;;;;;18.01;100.00;98886.66;4175645;28;20106;-75
2023/08/22 00:31:21;;;;;;;12.88;7.35;;;;;;;17.99;100.00;98883.47;4175502;28;20045;-74
2023/08/22 00:33:22;;;;;;;15.23;8.80;;;;;;;17.96;100.00;98883.13;4174722;28;20434;-74
2023/08/22 00:35:24;;;;;;;11.73;8.07;;;;;;;17.95;100.00;98880.72;4175275;28;20629;-75
2023/08/22 00:37:25;;;;;;;15.45;7.55;;;;;;;17.95;100.00;98877.91;4175693;28;20064;-74
2023/08/22 00:39:25;;;;;;;16.67;8.45;;;;;;;17.90;100.00;98870.78;4174885;28;20045;-74
2023/08/22 00:41:26;;;;;;;8.75;6.47;;;;;;;17.90;100.00;98867.97;4175757;28;20044;-74
2023/08/22 00:43:26;;;;;;;10.40;7.53;;;;;;;17.89;100.00;98874.78;4175325;28;20090;-74
2023/08/22 00:45:26;;;;;;;13.63;8.38;;;;;;;17.85;100.00;98871.22;4176549;28;20044;-74
2023/08/22 00:47:27;;;;;;;11.80;8.02;;;;;;;17.84;100.00;98880.06;4175569;28;20041;-74
2023/08/22 00:49:28;;;;;;;9.00;7.90;;;;;;;17.81;100.00;98878.09;4175439;28;20053;-74
2023/08/22 00:51:28;;;;;;;12.50;7.75;;;;;;;17.77;100.00;98878.13;4175018;28;20060;-74
2023/08/22 00:53:29;;;;;;;11.55;7.95;;;;;;;17.74;100.00;98875.38;4173222;28;20416;-74
2023/08/22 00:55:29;;;;;;;9.27;7.65;;;;;;;17.73;100.00;98873.78;4175404;28;20094;-74
2023/08/22 00:57:30;;;;;;;13.65;8.38;;;;;;;17.72;100.00;98877.81;4174630;28;20041;-74
2023/08/22 00:59:31;;;;;;;8.63;7.38;;;;;;;17.68;100.00;98867.38;4174835;28;20389;-74
2023/08/22 01:01:32;;;;;;;11.88;7.35;;;;;;;17.69;100.00;98876.56;4173499;28;20052;-74
2023/08/22 01:03:32;;;;;;;11.98;8.10;;;;;;;17.63;100.00;98865.06;4174023;28;20116;-74
2023/08/22 01:05:37;;;;;;;14.45;8.75;;;;;;;17.59;100.00;98860.69;4174392;28;20507;-75
2023/08/22 01:07:53;;;;;;;10.57;7.80;;;;;;;17.58;100.00;98859.13;4174721;28;20041;-75
2023/08/22 01:10:02;;;;;;;15.20;8.40;;;;;;;17.55;100.00;98857.16;4175375;28;20084;-74
2023/08/22 01:12:17;;;;;;;10.10;8.07;;;;;;;17.49;100.00;98848.41;4174852;28;20101;-74
2023/08/22 01:14:20;;;;;;;14.65;8.80;;;;;;;17.46;100.00;98854.03;4174446;28;20068;-75
2023/08/22 01:16:22;;;;;;;9.52;7.50;;;;;;;17.44;100.00;98854.47;4174879;28;20438;-75
2023/08/22 01:18:24;;;;;;;11.48;8.10;;;;;;;17.42;100.00;98856.88;4175387;28;20044;-74
2023/08/22 01:20:25;;;;;;;13.65;7.80;;;;;;;17.42;100.00;98857.69;4174944;28;20132;-75
2023/08/22 01:22:26;;;;;;;9.35;7.88;;;;;;;17.42;100.00;98860.47;4175109;28;20617;-74
2023/08/22 01:24:26;;;;;;;16.17;9.48;;;;;;;17.37;100.00;98858.09;4174331;28;20040;-75
2023/08/22 01:26:27;;;;;;;11.10;8.75;;;;;;;17.33;100.00;98851.78;4175597;28;20040;-74
2023/08/22 01:28:30;;;;;;;12.27;8.75;;;;;;;17.34;100.00;98855.38;4173713;28;20047;-75
2023/08/22 01:31:04;;;;;;;16.13;9.85;;;;;;;17.29;100.00;98844.63;4173842;28;20053;-74
2023/08/22 01:33:14;;;;;;;12.10;8.18;;;;;;;17.26;100.00;98848.25;4174023;28;20039;-75
2023/08/22 01:35:20;;;;;;;15.77;8.68;;;;;;;17.20;100.00;98847.88;4175117;28;20455;-74
2023/08/22 01:37:23;;;;;;;10.95;8.15;;;;;;;17.19;100.00;98837.91;4174668;28;20408;-74
2023/08/22 01:39:26;;;;;;;14.02;9.57;;;;;;;17.14;100.00;98843.97;4174830;28;20045;-74
2023/08/22 01:41:26;;;;;;;12.23;8.20;;;;;;;17.15;100.00;98841.97;4174189;28;20455;-75
2023/08/22 01:43:27;;;;;;;13.77;8.95;;;;;;;17.11;100.00;98839.97;4174005;28;20041;-75
2023/08/22 01:45:27;;;;;;;11.60;8.43;;;;;;;17.10;100.00;98834.81;4175768;28;20049;-74
2023/08/22 01:47:27;;;;;;;14.75;8.75;;;;;;;17.08;100.00;98826.84;4174822;28;20223;-74
2023/08/22 01:49:28;;;;;;;14.63;9.45;;;;;;;17.08;100.00;98831.63;4174639;28;20037;-75
2023/08/22 01:51:29;;;;;;;10.97;8.73;;;;;;;17.09;100.00;98817.25;4174840;28;20118;-75
2023/08/22 01:53:30;;;;;;;12.18;8.80;;;;;;;17.09;100.00;98806.06;4173392;28;20512;-74
2023/08/22 01:55:30;;;;;;;11.48;8.57;;;;;;;17.09;100.00;98803.28;4174389;28;20037;-74
2023/08/22 01:57:31;;;;;;;15.07;9.43;;;;;;;17.09;100.00;98816.44;4173060;28;20371;-74
2023/08/22 01:59:31;;;;;;;12.13;8.75;;;;;;;17.07;100.00;98810.50;4174000;28;20098;-74
2023/08/22 02:01:31;;;;;;;10.73;8.30;;;;;;;17.06;100.00;98811.69;4174341;28;20063;-74
2023/08/22 02:03:32;;;;;;;10.13;7.53;;;;;;;17.04;100.00;98795.31;4172973;28;20133;-74
2023/08/22 02:05:32;;;;;;;12.52;8.88;;;;;;;17.08;100.00;98803.69;4174512;28;20448;-74
2023/08/22 02:07:35;;;;;;;11.32;7.80;;;;;;;17.09;100.00;98805.28;4174326;28;20045;-74
2023/08/22 02:09:36;;;;;;;15.27;8.27;;;;;;;17.08;100.00;98807.28;4174307;28;20053;-74
2023/08/22 02:11:36;;;;;;;12.07;8.50;;;;;;;17.05;100.00;98807.31;4174139;28;20408;-74
2023/08/22 02:13:36;;;;;;;13.82;7.82;;;;;;;17.00;100.00;98821.72;4174130;28;20481;-75
2023/08/22 02:15:37;;;;;;;11.88;7.88;;;;;;;16.96;100.00;98816.16;4174385;28;20041;-75
2023/08/22 02:17:38;;;;;;;11.32;8.27;;;;;;;16.95;100.00;98819.38;4174303;28;20549;-74
2023/08/22 02:19:38;;;;;;;16.70;8.32;;;;;;;16.88;100.00;98813.84;4174150;28;20033;-74
2023/08/22 02:21:38;;;;;;;10.68;8.57;;;;;;;16.84;100.00;98820.25;4173922;28;20060;-75
2023/08/22 02:23:39;;;;;;;11.27;8.82;;;;;;;16.83;100.00;98815.88;4173415;28;20436;-74
2023/08/22 02:25:39;;;;;;;14.68;9.32;;;;;;;16.81;100.00;98809.91;4174341;28;20526;-74
2023/08/22 02:27:39;;;;;;;10.15;8.20;;;;;;;16.80;100.00;98815.91;4174354;28;20591;-74
2023/08/22 02:29:40;;;;;;;11.68;8.50;;;;;;;16.76;100.00;98818.72;4173928;28;20139;-74
2023/08/22 02:31:40;;;;;;;11.07;9.60;;;;;;;16.74;100.00;98820.34;4174146;28;20055;-75
2023/08/22 02:33:40;;;;;;;15.80;9.93;;;;;;;16.77;100.00;98822.31;4173432;28;20048;-74
2023/08/22 02:35:41;;;;;;;15.38;8.95;;;;;;;16.74;100.00;98821.16;4173330;28;20235;-74
2023/08/22 02:37:41;;;;;;;10.98;9.27;;;;;;;16.72;100.00;98820.78;4174414;28;20158;-74
2023/08/22 02:39:42;;;;;;;13.60;8.80;;;;;;;16.63;100.00;98817.59;4174176;28;20048;-74
2023/08/22 02:41:42;;;;;;;12.15;9.35;;;;;;;16.63;100.00;98812.00;4173807;28;20439;-75
2023/08/22 02:43:43;;;;;;;14.90;9.77;;;;;;;16.63;100.00;98809.22;4172709;28;20049;-74
2023/08/22 02:45:46;;;;;;;12.02;8.95;;;;;;;16.60;100.00;98814.84;4174710;28;20037;-74
2023/08/22 02:47:46;;;;;;;11.02;8.82;;;;;;;16.61;100.00;98811.63;4173438;28;20072;-74
2023/08/22 02:49:47;;;;;;;13.43;8.25;;;;;;;16.58;100.00;98815.25;4173440;28;20103;-74
2023/08/22 02:51:47;;;;;;;14.27;8.85;;;;;;;16.57;100.00;98816.47;4173869;28;20069;-74
2023/08/22 02:53:48;;;;;;;14.60;9.70;;;;;;;16.52;100.00;98811.28;4173318;28;20459;-74
2023/08/22 02:55:48;;;;;;;12.13;9.32;;;;;;;16.52;100.00;98814.09;4173590;28;20520;-74
2023/08/22 02:57:49;;;;;;;15.48;9.50;;;;;;;16.47;100.00;98815.34;4173267;28;20040;-74
2023/08/22 02:59:49;;;;;;;14.43;9.45;;;;;;;16.49;100.00;98821.28;4173960;28;20523;-74
2023/08/22 03:01:49;;;;;;;12.60;8.88;;;;;;;16.48;100.00;98810.53;4173636;28;20049;-74
2023/08/22 03:03:50;;;;;;;10.45;8.43;;;;;;;16.48;100.00;98807.75;4171279;28;20049;-74
2023/08/22 03:05:50;;;;;;;12.55;8.60;;;;;;;16.48;100.00;98814.13;4173661;28;20045;-74
2023/08/22 03:07:50;;;;;;;12.20;8.88;;;;;;;16.43;100.00;98808.97;4173952;28;20041;-74
2023/08/22 03:09:51;;;;;;;13.82;8.23;;;;;;;16.44;100.00;98807.75;4174065;28;20053;-74
2023/08/22 03:11:51;;;;;;;14.75;7.95;;;;;;;16.44;100.00;98804.16;4173466;28;20148;-74
2023/08/22 03:13:52;;;;;;;11.77;8.48;;;;;;;16.43;100.00;98805.38;4172999;28;20057;-75
2023/08/22 03:15:52;;;;;;;9.40;7.63;;;;;;;16.44;100.00;98809.75;4173614;28;20434;-74
2023/08/22 03:17:53;;;;;;;10.23;7.85;;;;;;;16.45;100.00;98816.94;4173313;28;20417;-74
2023/08/22 03:19:53;;;;;;;11.20;8.07;;;;;;;16.45;100.00;98802.97;4173484;28;20544;-74
2023/08/22 03:21:53;;;;;;;9.43;7.57;;;;;;;16.46;100.00;98815.72;4172580;28;20040;-74
2023/08/22 03:23:54;;;;;;;11.50;8.80;;;;;;;16.44;100.00;98806.97;4172895;28;20399;-74
2023/08/22 03:26:02;;;;;;;9.60;7.70;;;;;;;16.43;100.00;98810.97;4171793;28;20060;-75
2023/08/22 03:28:03;;;;;;;11.15;8.23;;;;;;;16.40;100.00;98814.59;4173309;28;20041;-75
2023/08/22 03:30:04;;;;;;;10.00;8.10;;;;;;;16.37;100.00;98809.78;4173190;28;20127;-75
2023/08/22 03:32:05;;;;;;;9.05;8.05;;;;;;;16.36;100.00;98809.00;4172830;28;20101;-75
2023/08/22 03:34:05;;;;;;;12.68;7.65;;;;;;;16.35;100.00;98801.03;4172370;28;20105;-75
2023/08/22 03:36:06;;;;;;;11.23;7.75;;;;;;;16.35;100.00;98798.25;4173545;28;20476;-75
2023/08/22 03:38:06;;;;;;;11.65;7.47;;;;;;;16.37;100.00;98796.63;4172591;28;20052;-74
2023/08/22 03:40:07;;;;;;;9.45;6.88;;;;;;;16.34;100.00;98799.47;4172720;28;20505;-74
2023/08/22 03:42:07;;;;;;;8.35;7.22;;;;;;;16.33;100.00;98803.47;4173494;28;20048;-75
2023/08/22 03:44:08;;;;;;;9.48;7.75;;;;;;;16.31;100.00;98801.06;4172830;28;20036;-75
2023/08/22 03:46:08;;;;;;;10.25;7.88;;;;;;;16.29;100.00;98798.66;4174149;28;20091;-75
2023/08/22 03:48:09;;;;;;;12.15;8.00;;;;;;;16.26;100.00;98807.09;4162122;28;20542;-75
2023/08/22 03:50:09;;;;;;;12.98;8.38;;;;;;;16.21;100.00;98805.50;4172262;28;20041;-74
2023/08/22 03:52:09;;;;;;;10.48;8.02;;;;;;;16.21;100.00;98808.28;4173027;28;20052;-75
2023/08/22 03:54:10;;;;;;;14.57;8.55;;;;;;;16.21;100.00;98807.50;4172395;28;20064;-75
2023/08/22 03:56:10;;;;;;;12.73;7.75;;;;;;;16.20;100.00;98803.13;4173759;28;20029;-75
2023/08/22 03:58:11;;;;;;;13.95;8.63;;;;;;;16.20;100.00;98806.72;4171550;28;20040;-75
2023/08/22 04:00:12;;;;;;;9.27;8.27;;;;;;;16.23;100.00;98807.91;4172800;28;20033;-75
2023/08/22 04:02:12;;;;;;;10.40;7.82;;;;;;;16.20;100.00;98800.31;4172428;28;20102;-74
2023/08/22 04:04:14;;;;;;;11.18;7.85;;;;;;;16.24;100.00;98801.13;4172056;28;20116;-74
2023/08/22 04:06:14;;;;;;;9.60;7.70;;;;;;;16.24;100.00;98804.69;4173155;28;20048;-75
2023/08/22 04:08:15;;;;;;;9.80;7.75;;;;;;;16.21;100.00;98802.72;4173781;28;20035;-75
2023/08/22 04:10:16;;;;;;;10.57;8.35;;;;;;;16.23;100.00;98794.75;4176601;28;20032;-75
2023/08/22 04:12:16;;;;;;;12.68;7.72;;;;;;;16.26;100.00;98798.72;4175647;28;20037;-75
2023/08/22 04:14:16;;;;;;;9.98;7.63;;;;;;;16.27;100.00;98794.72;4172976;28;20117;-74
2023/08/22 04:16:17;;;;;;;11.52;8.43;;;;;;;16.27;100.00;98798.28;4176263;28;20158;-74
2023/08/22 04:18:17;;;;;;;14.15;9.27;;;;;;;16.31;100.00;98803.88;4175576;28;20086;-74
2023/08/22 04:20:17;;;;;;;14.75;9.63;;;;;;;16.33;100.00;98797.88;4176097;28;20025;-75
2023/08/22 04:22:18;;;;;;;12.00;10.32;;;;;;;16.34;100.00;98800.25;4174682;28;20041;-74
2023/08/22 04:24:18;;;;;;;16.55;10.07;;;;;;;16.35;100.00;98796.25;4168389;28;20033;-75
2023/08/22 04:26:18;;;;;;;12.43;9.63;;;;;;;16.37;100.00;98787.47;4172088;28;20081;-74
2023/08/22 04:28:19;;;;;;;21.35;10.95;;;;;;;16.41;100.00;98791.03;4172790;28;20037;-75
2023/08/22 04:30:20;;;;;;;14.95;9.65;;;;;;;16.39;100.00;98788.66;4174031;28;20567;-75
2023/08/22 04:32:20;;;;;;;15.48;10.15;;;;;;;16.39;100.00;98785.06;4173610;28;20044;-75
2023/08/22 04:34:21;;;;;;;15.73;9.82;;;;;;;16.35;100.00;98782.28;4173387;28;20505;-74
2023/08/22 04:36:22;;;;;;;12.95;10.13;;;;;;;16.38;100.00;98792.63;4174508;28;20366;-75
2023/08/22 04:38:23;;;;;;;16.02;9.95;;;;;;;16.38;100.00;98789.84;4172981;28;20051;-75
2023/08/22 04:40:23;;;;;;;14.73;9.23;;;;;;;16.35;100.00;98785.09;4174034;28;20596;-74
2023/08/22 04:42:24;;;;;;;13.52;9.35;;;;;;;16.35;100.00;98787.09;4173905;28;20735;-75
2023/08/22 04:44:24;;;;;;;13.77;9.65;;;;;;;16.34;100.00;98788.28;4172426;28;20041;-75
2023/08/22 04:46:25;;;;;;;14.15;9.68;;;;;;;16.31;100.00;98789.91;4172624;28;20041;-74
2023/08/22 04:48:25;;;;;;;19.67;10.55;;;;;;;16.29;100.00;98789.50;4173499;28;20565;-74
2023/08/22 04:50:25;;;;;;;11.13;9.70;;;;;;;16.33;100.00;98787.50;4174069;28;20041;-75
2023/08/22 04:52:26;;;;;;;12.48;9.70;;;;;;;16.33;100.00;98781.13;4173463;28;20044;-74
2023/08/22 04:54:27;;;;;;;14.07;10.35;;;;;;;16.36;100.00;98791.47;4163019;28;20049;-74
2023/08/22 04:56:27;;;;;;;14.77;9.75;;;;;;;16.34;100.00;98791.09;4173832;28;20437;-75
2023/08/22 04:58:28;;;;;;;15.77;10.27;;;;;;;16.33;100.00;98793.06;4173834;28;20041;-74
2023/08/22 05:00:28;;;;;;;13.82;8.60;;;;;;;16.31;100.00;98797.50;4132153;28;20042;-74
2023/08/22 05:02:28;;;;;;;9.60;8.57;;;;;;;16.29;100.00;98789.50;4172511;28;20362;-74
2023/08/22 05:04:29;;;;;;;15.32;10.20;;;;;;;16.28;100.00;98793.50;4173593;28;20419;-75
2023/08/22 05:06:29;;;;;;;14.13;10.50;;;;;;;16.31;100.00;98797.50;4173957;28;20045;-75
2023/08/22 05:08:29;;;;;;;13.80;9.80;;;;;;;16.32;100.00;98796.28;4173510;28;20045;-74
2023/08/22 05:10:30;;;;;;;16.50;11.07;;;;;;;16.36;100.00;98797.84;4172999;28;20044;-74
2023/08/22 05:12:30;;;;;;;15.27;12.30;;;;;;;16.38;100.00;98791.84;4172348;28;20531;-75
2023/08/22 05:14:33;;;;;;;12.27;10.30;;;;;;;16.44;100.00;98790.22;4172703;28;20029;-74
2023/08/22 05:16:33;;;;;;;;;;;;;;;16.52;100.00;98800.91;4173717;28;20049;-74
2023/08/22 05:18:33;;;;;;;15.32;10.35;;;;;;;16.58;100.00;98795.69;4173886;28;19927;-75
2023/08/22 05:20:34;;;;;;;14.80;10.48;;;;;;;16.65;100.00;98798.44;4172955;28;20489;-74
2023/08/22 05:22:34;;;;;;;14.73;10.35;;;;;;;16.70;100.00;98800.00;4173294;28;20125;-74
2023/08/22 05:24:34;;;;;;;14.85;10.80;;;;;;;16.72;100.00;98804.00;4173955;28;20041;-74
2023/08/22 05:26:35;;;;;;;16.27;12.15;;;;;;;16.80;100.00;98794.38;4173660;28;20284;-74
2023/08/22 05:28:35;;;;;;;13.82;10.82;;;;;;;16.85;100.00;98796.69;4173441;28;20045;-74
2023/08/22 05:30:39;;;;;;;13.07;10.80;;;;;;;16.93;100.00;98799.44;4172915;28;20037;-74
2023/08/22 05:32:40;;;;;;;15.48;12.00;;;;;;;16.97;100.00;98797.41;4172362;28;20199;-75
2023/08/22 05:34:40;;;;;;;14.85;11.77;;;;;;;17.06;100.00;98792.94;4173589;28;20132;-75
2023/08/22 05:36:40;;;;;;;28.75;13.90;;;;;;;17.11;100.00;98802.84;4173711;28;20272;-74
2023/08/22 05:38:41;;;;;;;17.67;12.43;;;;;;;17.13;100.00;98795.66;4172506;28;20037;-74
2023/08/22 05:40:41;;;;;;;16.98;12.90;;;;;;;17.16;100.00;98790.44;4173386;28;20057;-74
2023/08/22 05:42:41;;;;;;;16.90;12.90;;;;;;;17.26;100.00;98797.91;4172709;28;20095;-75
2023/08/22 05:44:42;;;;;;;16.92;12.30;;;;;;;17.30;100.00;98799.47;4173371;28;20129;-74
2023/08/22 05:46:42;;;;;;;18.88;12.88;;;;;;;17.33;100.00;98798.63;4171830;28;20134;-74
2023/08/22 05:48:43;;;;;;;16.63;13.80;;;;;;;17.38;100.00;98794.59;4167393;28;20041;-74
2023/08/22 05:50:43;;;;;;;16.23;13.23;;;;;;;17.40;100.00;98798.56;4164180;28;20281;-74
2023/08/22 05:52:43;;;;;;;16.42;12.15;;;;;;;17.47;100.00;98800.50;4163043;28;20107;-74
2023/08/22 05:54:44;;;;;;;18.40;13.85;;;;;;;17.53;100.00;98801.59;4163945;28;20051;-74
2023/08/22 05:56:44;;;;;;;16.92;13.27;;;;;;;17.62;100.00;98810.28;4164322;28;20072;-75
2023/08/22 05:58:48;;;;;;;18.52;13.23;;;;;;;17.64;100.00;98798.72;4167954;28;20450;-74
2023/08/22 06:00:49;;;;;;;22.15;13.73;;;;;;;17.71;100.00;98814.63;4166894;28;20137;-75
2023/08/22 06:02:50;;;;;;;19.03;12.63;;;;;;;17.75;100.00;98807.00;4169143;28;20068;-75
2023/08/22 06:04:50;;;;;;;22.65;13.27;;;;;;;17.83;100.00;98809.28;4171736;28;20110;-74
2023/08/22 06:06:51;;;;;;;18.05;12.68;;;;;;;17.91;100.00;98812.78;4172706;28;20060;-74
2023/08/22 06:08:51;;;;;;;17.35;11.45;;;;;;;18.03;100.00;98812.22;4171585;28;20041;-74
2023/08/22 06:10:51;;;;;;;16.42;11.80;;;;;;;18.06;100.00;98817.00;4170011;28;20055;-74
2023/08/22 06:12:52;;;;;;;14.30;12.23;;;;;;;18.12;100.00;98812.53;4171561;28;20048;-74
2023/08/22 06:14:52;;;;;;;15.25;11.73;;;;;;;18.18;100.00;98812.84;4170709;28;20055;-74
2023/08/22 06:16:53;;;;;;;15.57;11.85;;;;;;;18.18;100.00;98808.03;4171667;28;20143;-74
2023/08/22 06:18:53;;;;;;;15.32;11.05;;;;;;;18.24;100.00;98814.75;4172539;28;20465;-74
2023/08/22 06:21:00;;;;;;;15.63;11.13;;;;;;;18.32;100.00;98807.03;4172027;28;20090;-74
2023/08/22 06:23:00;;;;;;;13.75;10.63;;;;;;;18.39;100.00;98806.94;4171198;28;20495;-74
2023/08/22 06:25:04;;;;;;;15.65;11.75;;;;;;;18.44;100.00;98814.06;4171982;28;20068;-74
2023/08/22 06:27:05;;;;;;;14.70;10.73;;;;;;;18.48;100.00;98812.81;4171753;28;20071;-74
2023/08/22 06:29:05;;;;;;;15.75;10.77;;;;;;;18.58;100.00;98813.06;4171883;28;20045;-74
2023/08/22 06:31:06;;;;;;;15.52;10.90;;;;;;;18.63;100.00;98818.19;4172010;28;20053;-74
2023/08/22 06:33:06;;;;;;;14.15;10.40;;;;;;;18.68;100.00;98814.94;4171014;28;20397;-74
2023/08/22 06:35:07;;;;;;;14.93;9.93;;;;;;;18.72;100.00;98813.66;4172946;28;20115;-74
2023/08/22 06:37:08;;;;;;;13.70;10.38;;;;;;;18.80;100.00;98811.53;4172865;28;20053;-74
2023/08/22 06:39:08;;;;;;;14.18;9.68;;;;;;;18.87;100.00;98811.44;4172691;28;20056;-74
2023/08/22 06:41:08;;;;;;;10.73;8.98;;;;;;;18.89;100.00;98802.59;4172538;28;20064;-74
2023/08/22 06:43:09;;;;;;;13.25;9.27;;;;;;;18.96;100.00;98800.47;4171960;28;20041;-74
2023/08/22 06:45:09;;;;;;;11.25;9.10;;;;;;;19.07;100.00;98803.06;4173496;28;20041;-74
2023/08/22 06:47:10;;;;;;;11.68;9.25;;;;;;;19.12;100.00;98796.97;4172684;28;20529;-74
2023/08/22 06:49:10;;;;;;;14.70;9.70;;;;;;;19.25;100.00;98791.53;4172669;28;20554;-74
2023/08/22 06:51:10;;;;;;;11.52;9.45;;;;;;;19.32;100.00;98797.81;4172640;28;20064;-74
2023/08/22 06:53:11;;;;;;;13.52;9.38;;;;;;;19.31;100.00;98810.25;4171948;28;20067;-74
2023/08/22 06:55:11;;;;;;;12.18;9.52;;;;;;;19.36;100.00;98806.97;4172717;28;20390;-74
2023/08/22 06:57:11;;;;;;;11.00;9.30;;;;;;;19.38;100.00;98811.34;4172262;28;20123;-74
2023/08/22 06:59:12;;;;;;;11.07;9.95;;;;;;;19.40;100.00;98806.09;4172059;28;20048;-74
2023/08/22 07:01:13;;;;;;;12.20;9.40;;;;;;;19.41;100.00;98804.88;4172557;28;20049;-74
2023/08/22 07:03:14;;;;;;;12.27;8.77;;;;;;;19.49;100.00;98809.13;4172185;28;20048;-74
2023/08/22 07:05:15;;;;;;;11.43;8.95;;;;;;;19.52;100.00;98813.84;4172145;28;20045;-74
2023/08/22 07:07:15;;;;;;;10.82;9.02;;;;;;;19.58;100.00;98812.19;4172697;28;20490;-74
2023/08/22 07:09:15;;;;;;;13.00;9.07;;;;;;;19.61;100.00;98809.31;4172611;28;20303;-74
2023/08/22 07:11:16;;;;;;;12.98;9.23;;;;;;;19.75;100.00;98815.84;4171984;28;20064;-74
2023/08/22 07:13:16;;;;;;;15.88;10.10;;;;;;;19.74;100.00;98822.69;4171133;28;20048;-74
2023/08/22 07:15:17;;;;;;;12.38;8.73;;;;;;;19.80;100.00;98816.16;4172702;28;20112;-74
2023/08/22 07:17:17;;;;;;;12.27;9.18;;;;;;;19.82;100.00;98816.50;4172581;28;20052;-74
2023/08/22 07:19:19;;;;;;;11.27;8.80;;;;;;;19.92;100.00;98821.09;4171937;28;20049;-74
2023/08/22 07:21:20;;;;;;;14.10;8.60;;;;;;;20.00;100.00;98812.53;4171888;28;20451;-74
2023/08/22 07:23:20;;;;;;;11.07;8.18;;;;;;;20.03;100.00;98818.09;4172003;28;20041;-75
2023/08/22 07:25:21;;;;;;;17.10;9.80;;;;;;;20.12;100.00;98814.69;4171653;28;20091;-74
2023/08/22 07:27:22;;;;;;;12.13;9.82;;;;;;;20.19;100.00;98826.56;4171389;28;20041;-74
2023/08/22 07:29:22;;;;;;;9.38;8.13;;;;;;;20.27;100.00;98823.56;4172812;28;20183;-74
2023/08/22 07:31:23;;;;;;;11.80;8.35;;;;;;;20.31;100.00;98813.84;4171950;28;20564;-74
2023/08/22 07:33:23;;;;;;;10.38;8.15;;;;;;;20.42;100.00;98822.81;4171442;28;20111;-74
2023/08/22 07:35:24;;;;;;;11.98;8.98;;;;;;;20.48;100.00;98818.31;4172484;28;20040;-74
2023/08/22 07:37:26;;;;;;;10.63;8.55;;;;;;;20.57;100.00;98825.34;4172283;28;20040;-75
2023/08/22 07:39:29;;;;;;;10.02;8.90;;;;;;;20.60;100.00;98822.44;4171944;28;20531;-74
2023/08/22 07:41:29;;;;;;;12.13;8.38;;;;;;;20.65;100.00;98810.69;4171416;28;20057;-74
2023/08/22 07:43:30;;;;;;;13.07;8.80;;;;;;;20.67;100.00;98813.84;4172667;28;20067;-74
2023/08/22 07:45:30;;;;;;;12.98;8.27;;;;;;;20.76;100.00;98816.84;4175654;28;20123;-74
2023/08/22 07:47:30;;;;;;;11.43;8.43;;;;;;;20.85;100.00;98819.06;4175116;28;20052;-74
2023/08/22 07:49:31;;;;;;;11.13;9.27;;;;;;;20.92;100.00;98813.25;4175197;28;20499;-74
2023/08/22 07:51:32;;;;;;;11.18;7.80;;;;;;;21.00;100.00;98820.25;4175182;28;20045;-74
2023/08/22 07:53:32;;;;;;;8.15;7.35;;;;;;;21.03;100.00;98822.22;4174294;28;20033;-74
2023/08/22 07:55:32;;;;;;;9.93;7.28;;;;;;;21.06;100.00;98814.91;4174949;28;20059;-75
2023/08/22 07:57:33;;;;;;;9.82;7.80;;;;;;;21.15;100.00;98823.50;4175232;28;20132;-74
2023/08/22 07:59:33;;;;;;;13.90;8.63;;;;;;;21.22;100.00;98831.78;4175141;28;20043;-74
2023/08/22 08:01:34;;;;;;;13.10;7.82;;;;;;;21.30;100.00;98829.59;4173571;28;20068;-75
2023/08/22 08:03:34;;;;;;;10.15;7.80;;;;;;;21.36;100.00;98829.88;4174335;28;20435;-75
2023/08/22 08:05:35;;;;;;;9.23;8.00;;;;;;;21.41;100.00;98830.09;4175135;28;20124;-74
2023/08/22 08:07:35;;;;;;;9.55;8.43;;;;;;;21.41;100.00;98838.53;4175178;28;20045;-75
2023/08/22 08:09:36;;;;;;;12.38;7.75;;;;;;;21.47;100.00;98830.34;4174581;28;20110;-74
2023/08/22 08:11:36;;;;;;;9.82;7.72;;;;;;;21.56;100.00;98836.13;4175402;28;20045;-74
2023/08/22 08:13:36;;;;;;;16.52;7.43;;;;;;;21.63;100.00;98837.97;4174364;28;20098;-74
2023/08/22 08:15:37;;;;;;;11.18;7.22;;;;;;;21.76;100.00;98848.06;4174681;28;20167;-74
2023/08/22 08:17:37;;;;;;;11.82;7.15;;;;;;;21.75;100.00;98840.81;4175422;28;20049;-74
2023/08/22 08:19:38;;;;;;;10.80;7.25;;;;;;;21.77;100.00;98837.59;4174503;28;20280;-74
2023/08/22 08:21:39;;;;;;;8.20;6.57;;;;;;;21.80;100.00;98840.28;4174965;28;20076;-75
2023/08/22 08:23:39;;;;;;;7.63;6.53;;;;;;;21.87;100.00;98836.50;4174287;28;20076;-75
2023/08/22 08:25:40;;;;;;;12.35;8.02;;;;;;;21.98;100.00;98836.97;4173729;28;20053;-74
2023/08/22 08:27:41;;;;;;;12.45;8.05;;;;;;;22.05;100.00;98833.94;4174890;28;20057;-74
2023/08/22 08:29:41;;;;;;;10.27;7.60;;;;;;;22.17;100.00;98828.81;4174329;28;20053;-75
2023/08/22 08:31:41;;;;;;;12.20;7.85;;;;;;;22.26;100.00;98828.94;4175032;28;20541;-74
2023/08/22 08:33:42;;;;;;;11.60;7.63;;;;;;;22.39;100.00;98833.34;4173718;28;20124;-74
2023/08/22 08:35:42;;;;;;;10.75;6.80;;;;;;;22.49;100.00;98839.13;4174839;28;20056;-74
2023/08/22 08:37:42;;;;;;;8.75;6.78;;;;;;;22.64;100.00;98837.44;4174820;28;20151;-75
2023/08/22 08:39:43;;;;;;;8.20;6.07;;;;;;;22.70;100.00;98830.78;4174143;28;20053;-74
2023/08/22 08:42:02;;;;;;;10.80;6.63;;;;;;;22.81;100.00;98836.06;4173231;28;20049;-74
2023/08/22 08:44:03;;;;;;;7.85;6.15;;;;;;;22.86;100.00;98832.72;4173701;28;20106;-75
2023/08/22 08:46:04;;;;;;;9.90;6.00;;;;;;;22.93;100.00;98840.97;4175174;28;20043;-75
2023/08/22 08:48:05;;;;;;;7.57;6.75;;;;;;;23.07;100.00;98841.72;4174031;28;20028;-75
2023/08/22 08:50:07;;;;;;;7.38;5.88;;;;;;;23.10;100.00;98838.78;4174361;28;20029;-75
2023/08/22 08:52:11;;;;;;;9.45;5.68;;;;;;;23.17;100.00;98837.75;4174516;28;20174;-75
2023/08/22 08:54:12;;;;;;;10.35;7.18;;;;;;;23.25;100.00;98830.63;4173506;28;20124;-74
2023/08/22 08:56:14;;;;;;;10.45;7.20;;;;;;;23.20;100.00;98834.03;4173329;28;20095;-75
2023/08/22 08:58:14;;;;;;;9.32;7.47;;;;;;;23.28;100.00;98849.47;4174321;28;20090;-74
2023/08/22 09:00:16;;;;;;;8.25;7.03;;;;;;;23.13;100.00;98834.25;4174434;28;20037;-74
2023/08/22 09:02:17;;;;;;;9.02;6.65;;;;;;;23.23;100.00;98839.53;4174215;28;20272;-74
2023/08/22 09:04:21;;;;;;;10.07;6.82;;;;;;;23.23;100.00;98842.38;4173640;28;20061;-74
2023/08/22 09:06:21;;;;;;;8.90;6.47;;;;;;;23.25;100.00;98841.91;4173055;28;20055;-75
2023/08/22 09:08:23;;;;;;;8.57;6.78;;;;;;;23.28;100.00;98838.19;4174220;28;20041;-74
2023/08/22 09:10:36;;;;;;;8.70;6.80;;;;;;;23.32;100.00;98838.84;4173986;28;20485;-75
2023/08/22 09:12:37;;;;;;;6.75;6.05;;;;;;;23.36;100.00;98847.19;4173132;28;20193;-74
2023/08/22 09:14:44;;;;;;;10.10;6.78;;;;;;;23.42;100.00;98840.53;4174481;28;20068;-74
2023/08/22 09:16:44;;;;;;;8.02;5.82;;;;;;;23.48;100.00;98835.84;4174066;28;20523;-75